Time;durP1;ratioP1;P1;durP2;ratioP2;P2;SDS_P1;SDS_P2;PMS_P1;PMS_P2;Temp;Humidity;BMP_temperature;BMP_pressure;BME280_temperature;BME280_humidity;BME280_pressure;Samples;Min_cycle;Max_cycle;Signal;HPM_P1;HPM_P2
2022/09/14 00:00:21;;;;;;;21.70;13.10;;;25.60;99.90;;;;;;4819700;29;20035;-68
2022/09/14 00:05:55;;;;;;;19.20;12.63;;;25.60;99.90;;;;;;4801528;29;20039;-68
2022/09/14 00:14:49;;;;;;;26.15;14.50;;;25.50;99.90;;;;;;5091099;27;20382;-70
2022/09/14 00:17:35;;;;;;;22.92;14.75;;;25.60;99.90;;;;;;5069634;28;20036;-68
2022/09/14 00:23:28;;;;;;;16.30;12.77;;;25.80;99.90;;;;;;4950996;29;20038;-69
2022/09/14 00:26:17;;;;;;;22.80;14.13;;;25.80;99.90;;;;;;4912620;29;20040;-68
2022/09/14 00:28:46;;;;;;;20.10;14.07;;;25.80;99.90;;;;;;4874698;29;20030;-69
2022/09/14 00:31:52;;;;;;;86.95;65.28;;;25.90;99.90;;;;;;4875236;29;20116;-63
2022/09/14 00:34:19;;;;;;;90.78;63.00;;;26.00;99.90;;;;;;4818258;29;20060;-62
2022/09/14 00:36:48;;;;;;;90.40;63.53;;;26.10;99.90;;;;;;4819585;29;20501;-61
2022/09/14 00:54:27;;;;;;;38.63;22.98;;;26.80;99.90;;;;;;4931513;29;20040;-62
2022/09/14 01:13:48;;;;;;;86.57;28.70;;;27.30;99.90;;;;;;5090780;28;20371;-62
2022/09/14 01:16:43;;;;;;;82.22;29.85;;;27.20;99.90;;;;;;5028532;28;20037;-62
2022/09/14 01:19:33;;;;;;;90.03;30.65;;;27.20;99.90;;;;;;4989297;28;20035;-62
2022/09/14 01:22:09;;;;;;;103.75;34.70;;;27.10;99.90;;;;;;4989282;28;20046;-63
2022/09/14 01:24:47;;;;;;;103.72;32.55;;;27.30;99.90;;;;;;4989228;28;20086;-62
2022/09/14 01:27:35;;;;;;;108.40;35.47;;;27.40;99.90;;;;;;4988844;28;20026;-62
2022/09/14 01:33:13;;;;;;;104.18;32.53;;;27.60;99.90;;;;;;4912215;29;20038;-63
2022/09/14 01:39:28;;;;;;;108.88;36.22;;;27.60;99.90;;;;;;4837956;29;20038;-62
2022/09/14 01:44:49;;;;;;;108.65;37.28;;;27.50;99.90;;;;;;4730248;30;20044;-63
2022/09/14 01:53:19;;;;;;;177.57;58.35;;;27.50;99.90;;;;;;5071087;28;20430;-62
2022/09/14 01:55:51;;;;;;;152.20;49.13;;;27.60;99.90;;;;;;5028750;28;20095;-63
2022/09/14 02:01:49;;;;;;;121.13;41.47;;;27.70;99.90;;;;;;4912425;29;20043;-62
2022/09/14 02:04:35;;;;;;;131.32;60.88;;;27.80;99.90;;;;;;4893529;29;20133;-60
2022/09/14 02:07:22;;;;;;;153.45;80.50;;;28.00;99.90;;;;;;4893733;29;20041;-61
2022/09/14 02:10:29;;;;;;;87.60;41.33;;;28.10;99.90;;;;;;4819537;29;20114;-61
2022/09/14 02:15:42;;;;;;;59.00;27.20;;;28.20;99.90;;;;;;4783381;30;20048;-60
2022/09/14 02:28:25;;;;;;;98.40;69.35;;;28.30;99.90;;;;;;5090699;28;20428;-63
2022/09/14 02:31:20;;;;;;;61.42;40.85;;;28.50;99.90;;;;;;5068307;28;20367;-61
2022/09/14 02:34:07;;;;;;;52.63;31.10;;;28.50;99.90;;;;;;5008910;28;20038;-62
2022/09/14 02:56:11;;;;;;;38.67;23.55;;;29.00;99.90;;;;;;5091012;28;20375;-63
2022/09/14 02:59:18;;;;;;;27.35;20.73;;;29.10;99.90;;;;;;5068314;28;20513;-62
2022/09/14 03:01:44;;;;;;;27.83;21.13;;;29.20;99.90;;;;;;4950918;29;20034;-62
2022/09/14 03:11:04;;;;;;;44.70;33.72;;;29.30;99.90;;;;;;4819860;29;20043;-62
2022/09/14 03:20:16;;;;;;;30.70;18.37;;;29.60;99.90;;;;;;5061796;27;2027582;-63
2022/09/14 03:23:03;;;;;;;23.30;15.73;;;29.90;99.90;;;;;;4969862;28;20496;-62
2022/09/14 03:25:50;;;;;;;26.15;17.33;;;29.70;99.90;;;;;;4893719;29;20543;-62
2022/09/14 03:28:16;;;;;;;29.27;17.23;;;29.80;99.90;;;;;;4837932;29;20103;-63
2022/09/14 03:31:03;;;;;;;22.23;15.90;;;29.60;99.90;;;;;;4837986;29;20073;-63
2022/09/14 03:33:49;;;;;;;32.60;15.00;;;29.70;99.90;;;;;;4837925;29;20038;-60
2022/09/14 03:36:56;;;;;;;24.48;14.82;;;29.90;99.90;;;;;;4819615;29;20046;-62
2022/09/14 03:39:23;;;;;;;17.25;13.95;;;29.80;99.90;;;;;;4783200;30;20061;-62
2022/09/14 03:42:09;;;;;;;19.38;13.10;;;29.80;99.90;;;;;;4783403;30;20035;-61
2022/09/14 04:04:11;;;;;;;16.58;11.77;;;29.90;99.90;;;;;;4893580;29;20029;-60
2022/09/14 04:06:58;;;;;;;50.28;36.10;;;30.00;99.90;;;;;;4837192;29;20049;-61
2022/09/14 04:14:57;;;;;;;21.83;15.25;;;30.40;99.90;;;;;;5092203;27;20430;-62
2022/09/14 04:17:44;;;;;;;24.05;13.63;;;30.70;99.90;;;;;;5091166;28;20082;-62
2022/09/14 04:20:11;;;;;;;30.65;17.73;;;30.80;99.90;;;;;;5068585;28;20032;-62
2022/09/14 04:22:37;;;;;;;24.73;16.63;;;30.90;99.90;;;;;;5065799;28;20544;-62
2022/09/14 04:28:10;;;;;;;15.30;10.73;;;31.00;99.90;;;;;;5016311;28;20033;-63
2022/09/14 04:30:57;;;;;;;15.20;11.30;;;30.90;99.90;;;;;;5028565;28;20096;-62
2022/09/14 04:33:43;;;;;;;16.20;11.45;;;30.90;99.90;;;;;;4989000;28;20531;-62
2022/09/14 04:48:56;;;;;;;15.82;9.85;;;31.40;99.90;;;;;;5090614;28;20413;-60
2022/09/14 04:51:45;;;;;;;15.70;10.50;;;31.50;99.90;;;;;;5045310;28;20165;-61
2022/09/14 04:54:15;;;;;;;19.25;12.25;;;31.50;99.90;;;;;;4959685;28;20042;-63
2022/09/14 05:00:27;;;;;;;17.10;10.32;;;31.40;99.90;;;;;;4901549;29;20120;-61
2022/09/14 05:22:42;;;;;;;18.58;11.55;;;31.80;99.90;;;;;;5070272;28;20383;-66
2022/09/14 05:25:28;;;;;;;16.02;11.15;;;31.80;99.90;;;;;;5048372;28;20045;-63
2022/09/14 05:31:41;;;;;;;16.95;10.23;;;31.80;99.90;;;;;;4950725;29;20028;-64
2022/09/14 05:34:09;;;;;;;13.05;10.15;;;31.80;99.90;;;;;;4845694;29;20126;-67
2022/09/14 05:37:17;;;;;;;17.98;11.73;;;31.70;99.90;;;;;;4822501;29;20027;-67
2022/09/14 05:40:05;;;;;;;14.02;11.35;;;31.60;99.90;;;;;;4784759;30;20040;-66
2022/09/14 05:49:02;;;;;;;15.35;13.60;;;31.50;99.90;;;;;;5111732;27;20466;-65
2022/09/14 05:52:09;;;;;;;14.48;12.10;;;31.50;99.90;;;;;;5027670;28;20099;-67
2022/09/14 05:58:01;;;;;;;19.63;13.65;;;31.40;99.90;;;;;;4911037;29;20032;-66
2022/09/14 06:12:31;;;;;;;15.70;13.43;;;31.40;99.90;;;;;;5089745;28;20378;-66
2022/09/14 06:18:04;;;;;;;15.23;12.95;;;31.40;99.90;;;;;;5087562;28;20508;-66
2022/09/14 06:21:11;;;;;;;21.65;14.90;;;31.30;99.90;;;;;;5065121;28;20128;-66
2022/09/14 06:30:11;;;;;;;18.08;13.00;;;31.00;99.90;;;;;;4854094;29;20172;-68
2022/09/14 06:42:36;;;;;;;20.92;14.90;;;31.00;99.90;;;;;;5005619;28;20034;-67
2022/09/14 06:45:23;;;;;;;21.05;15.15;;;31.00;99.90;;;;;;4950135;29;20032;-68
2022/09/14 06:47:49;;;;;;;23.30;15.82;;;30.90;99.90;;;;;;4864855;29;20097;-64
2022/09/14 06:50:36;;;;;;;20.10;15.68;;;30.80;99.90;;;;;;4864122;29;20449;-64
2022/09/14 06:53:42;;;;;;;20.20;15.43;;;30.80;99.90;;;;;;4808780;29;20051;-66
2022/09/14 06:56:28;;;;;;;24.50;17.17;;;30.70;99.90;;;;;;4702537;30;20549;-66
2022/09/14 06:59:15;;;;;;;43.45;30.60;;;30.70;99.90;;;;;;4651531;30;20187;-64
2022/09/14 07:08:34;;;;;;;23.23;19.42;;;30.80;99.90;;;;;;5087929;27;20435;-68
2022/09/14 07:11:01;;;;;;;28.48;21.08;;;30.70;99.90;;;;;;5090333;28;20040;-66
2022/09/14 07:16:56;;;;;;;30.67;21.08;;;30.80;99.90;;;;;;5008635;28;20034;-66
2022/09/14 07:19:22;;;;;;;31.25;23.05;;;30.70;99.90;;;;;;4968543;28;20039;-66
2022/09/14 07:24:35;;;;;;;34.92;24.15;;;30.70;99.90;;;;;;4910014;29;20561;-65
2022/09/14 07:27:22;;;;;;;45.30;29.23;;;30.80;99.90;;;;;;4912619;29;20048;-67
2022/09/14 07:30:08;;;;;;;30.83;22.05;;;30.70;99.90;;;;;;4874777;29;20056;-65
2022/09/14 07:35:41;;;;;;;42.65;30.05;;;30.90;99.90;;;;;;4837639;29;20064;-67
2022/09/14 07:38:08;;;;;;;43.75;27.35;;;31.00;99.90;;;;;;4819110;29;20034;-67
2022/09/14 07:40:57;;;;;;;89.38;61.30;;;31.10;99.90;;;;;;4819125;29;20049;-67
2022/09/14 08:00:20;;;;;;;19.45;16.52;;;31.40;99.90;;;;;;5089459;27;20350;-65
2022/09/14 08:03:11;;;;;;;19.73;15.80;;;31.40;99.90;;;;;;5055409;28;20079;-64
2022/09/14 08:06:17;;;;;;;25.33;19.08;;;31.40;99.90;;;;;;4977158;28;20407;-68
2022/09/14 08:09:24;;;;;;;29.92;21.52;;;31.30;99.90;;;;;;4866357;29;20048;-68
2022/09/14 08:12:30;;;;;;;22.77;16.45;;;31.10;99.90;;;;;;4794862;29;20703;-67
2022/09/14 08:14:57;;;;;;;17.73;14.35;;;31.20;99.90;;;;;;4695384;30;20045;-66
2022/09/14 08:17:24;;;;;;;18.02;13.88;;;31.30;99.90;;;;;;4694698;30;20619;-68
2022/09/14 08:22:38;;;;;;;17.33;13.15;;;31.40;99.90;;;;;;4708312;30;20121;-68
2022/09/14 08:34:24;;;;;;;16.85;13.63;;;31.40;99.90;;;;;;5000509;28;20125;-67
2022/09/14 08:39:57;;;;;;;28.83;21.63;;;31.30;99.90;;;;;;4964620;28;20049;-68
2022/09/14 08:49:01;;;;;;;14.95;10.65;;;31.00;99.90;;;;;;4866681;29;20050;-64
2022/09/14 08:57:44;;;;;;;23.38;13.90;;;30.90;97.70;;;;;;5086633;27;20520;-68
2022/09/14 09:00:50;;;;;;;16.63;12.85;;;30.70;96.90;;;;;;5089133;28;20031;-66
2022/09/14 09:03:57;;;;;;;27.83;13.40;;;30.60;96.50;;;;;;5049298;23;20045;-66
2022/09/14 09:06:33;;;;;;;17.23;13.43;;;30.70;97.20;;;;;;4988929;28;20122;-67
2022/09/14 09:09:09;;;;;;;20.75;15.52;;;30.70;96.50;;;;;;5007166;28;20126;-65
2022/09/14 09:11:59;;;;;;;20.33;15.43;;;30.60;97.30;;;;;;5009150;28;20101;-66
2022/09/14 09:14:58;;;;;;;29.00;18.25;;;30.60;96.40;;;;;;4951226;29;20057;-66
2022/09/14 09:17:47;;;;;;;36.47;25.58;;;30.50;96.90;;;;;;4890597;29;20045;-67
2022/09/14 09:20:38;;;;;;;36.92;28.02;;;30.50;97.50;;;;;;4866561;29;20179;-68
2022/09/14 09:23:18;;;;;;;100.75;71.05;;;30.40;98.60;;;;;;4813139;29;20077;-67
2022/09/14 09:26:11;;;;;;;62.97;43.75;;;30.50;99.00;;;;;;4805345;29;20070;-67
2022/09/14 09:29:06;;;;;;;211.95;133.07;;;30.50;98.80;;;;;;4800552;29;20043;-67
2022/09/14 09:31:38;;;;;;;109.65;80.43;;;30.50;99.10;;;;;;4729066;30;20041;-68
2022/09/14 09:34:05;;;;;;;237.13;184.20;;;30.40;98.90;;;;;;4735423;30;20052;-67
2022/09/14 09:42:23;;;;;;;86.63;55.47;;;30.30;98.00;;;;;;4702468;30;20037;-67
2022/09/14 09:45:20;;;;;;;129.05;72.93;;;30.30;97.90;;;;;;4711217;30;20460;-67
2022/09/14 09:47:47;;;;;;;93.97;54.45;;;30.30;97.70;;;;;;4675937;30;20250;-69
2022/09/14 09:53:49;;;;;;;43.65;26.30;;;30.20;98.00;;;;;;4719923;30;20520;-69
2022/09/14 10:05:30;;;;;;;35.65;17.00;;;30.10;98.60;;;;;;5067158;28;20117;-68
2022/09/14 10:08:20;;;;;;;35.30;19.83;;;30.10;98.30;;;;;;5005285;28;20077;-69
2022/09/14 10:10:47;;;;;;;29.10;16.48;;;30.00;98.30;;;;;;4950888;29;20099;-70
2022/09/14 10:16:41;;;;;;;18.88;12.93;;;29.90;97.70;;;;;;4874571;29;20033;-67
2022/09/14 10:19:48;;;;;;;20.00;15.05;;;29.90;98.10;;;;;;4885083;29;20051;-67
2022/09/14 10:22:37;;;;;;;34.85;21.90;;;29.90;98.30;;;;;;4746998;30;20052;-69
2022/09/14 10:31:36;;;;;;;40.38;24.17;;;29.70;99.90;;;;;;5109926;27;20400;-66
2022/09/14 10:34:13;;;;;;;48.22;30.70;;;29.60;99.90;;;;;;5086331;28;20673;-66
2022/09/14 10:46:47;;;;;;;49.13;30.73;;;29.40;99.90;;;;;;4910862;29;20040;-67
2022/09/14 10:52:19;;;;;;;39.45;24.70;;;29.20;99.90;;;;;;4837194;29;20042;-68
2022/09/14 11:01:47;;;;;;;28.33;17.42;;;29.10;99.90;;;;;;5110876;27;20401;-66
2022/09/14 11:10:53;;;;;;;33.65;18.45;;;28.90;99.90;;;;;;4998391;28;20030;-67
2022/09/14 11:13:28;;;;;;;24.67;18.45;;;29.00;99.90;;;;;;4956648;28;20051;-66
2022/09/14 11:16:23;;;;;;;36.17;22.55;;;29.00;99.90;;;;;;4960057;28;20038;-66
2022/09/14 11:19:29;;;;;;;31.83;19.52;;;28.90;99.90;;;;;;4949618;29;20038;-65
2022/09/14 11:31:15;;;;;;;32.28;19.20;;;28.90;99.90;;;;;;5065884;28;20396;-64
2022/09/14 11:37:15;;;;;;;95.20;52.75;;;28.90;99.90;;;;;;5008652;28;20065;-64
2022/09/14 11:40:05;;;;;;;87.95;49.85;;;28.90;99.90;;;;;;4911786;29;20037;-64
2022/09/14 11:42:51;;;;;;;45.17;28.70;;;28.90;99.90;;;;;;4848531;29;20030;-65
2022/09/14 11:45:43;;;;;;;43.53;26.70;;;28.90;99.90;;;;;;4868454;29;20474;-66
2022/09/14 11:48:20;;;;;;;72.45;40.10;;;28.90;99.90;;;;;;4845387;29;20117;-65
2022/09/14 12:10:12;;;;;;;115.13;60.25;;;28.80;99.90;;;;;;5049531;28;20046;-65
2022/09/14 12:13:00;;;;;;;78.30;42.58;;;28.80;99.90;;;;;;4969506;28;20042;-66
2022/09/14 12:15:47;;;;;;;62.13;36.17;;;28.70;99.90;;;;;;4910305;29;20032;-65
2022/09/14 12:21:30;;;;;;;72.00;39.38;;;28.60;99.90;;;;;;4839911;29;20562;-65
2022/09/14 12:23:58;;;;;;;81.68;43.70;;;28.60;99.90;;;;;;4837162;29;20041;-66
2022/09/14 12:51:55;;;;;;;59.78;33.40;;;28.40;99.90;;;;;;5069141;28;20128;-64
2022/09/14 12:55:02;;;;;;;62.72;34.78;;;28.40;99.90;;;;;;5000200;28;20031;-64
2022/09/14 13:13:32;;;;;;;83.40;49.67;;;28.30;99.90;;;;;;5048881;28;20038;-65
2022/09/14 13:22:37;;;;;;;85.18;48.45;;;28.30;99.90;;;;;;4855495;29;20038;-65
2022/09/14 13:40:55;;;;;;;55.40;35.30;;;28.20;99.90;;;;;;5046811;28;20033;-65
2022/09/14 13:46:48;;;;;;;73.55;44.20;;;28.10;99.90;;;;;;4966855;28;20150;-66
2022/09/14 14:05:45;;;;;;;62.95;36.67;;;28.00;99.90;;;;;;5091636;27;20394;-64
2022/09/14 14:08:34;;;;;;;47.72;29.60;;;28.00;99.90;;;;;;5028446;28;20033;-64
2022/09/14 14:11:40;;;;;;;48.45;30.23;;;27.90;99.90;;;;;;5008806;28;20573;-66
2022/09/14 14:20:34;;;;;;;51.35;30.63;;;27.90;99.90;;;;;;4801601;29;20043;-66
2022/09/14 14:35:42;;;;;;;51.40;28.65;;;27.90;99.90;;;;;;4970672;28;20037;-65
2022/09/14 14:41:15;;;;;;;49.08;25.52;;;27.90;99.90;;;;;;4893705;29;20515;-65
2022/09/14 14:43:46;;;;;;;41.05;27.33;;;27.90;99.90;;;;;;4847086;29;20054;-65
2022/09/14 14:46:13;;;;;;;47.13;30.15;;;27.90;99.90;;;;;;4842900;29;20550;-65
2022/09/14 14:49:20;;;;;;;43.08;28.23;;;27.90;99.90;;;;;;4849544;29;20066;-65
2022/09/14 15:01:24;;;;;;;48.45;30.65;;;27.80;99.90;;;;;;5084806;28;20388;-66
2022/09/14 15:04:11;;;;;;;43.95;30.23;;;27.80;99.90;;;;;;5061924;28;20044;-66
2022/09/14 15:12:51;;;;;;;48.55;30.65;;;27.80;99.90;;;;;;4841383;29;20110;-66
2022/09/14 15:15:57;;;;;;;48.35;30.20;;;27.80;99.90;;;;;;4792591;29;20495;-66
2022/09/14 15:30:26;;;;;;;52.70;34.45;;;27.70;99.90;;;;;;5048970;28;20065;-66
2022/09/14 15:33:13;;;;;;;62.95;39.10;;;27.80;99.90;;;;;;4989463;28;20046;-67
2022/09/14 15:41:53;;;;;;;65.10;41.90;;;27.70;99.90;;;;;;4819888;29;20046;-67
2022/09/14 15:44:20;;;;;;;67.15;44.83;;;27.80;99.90;;;;;;4820123;29;20400;-67
2022/09/14 15:47:06;;;;;;;66.80;44.10;;;27.70;99.90;;;;;;4819543;29;20041;-66
2022/09/14 16:00:12;;;;;;;73.15;45.28;;;27.70;99.90;;;;;;5111852;27;20469;-66
2022/09/14 16:03:18;;;;;;;55.10;35.20;;;27.70;99.90;;;;;;5008981;28;20125;-66
2022/09/14 16:11:58;;;;;;;42.78;29.48;;;27.70;99.90;;;;;;4856485;29;20061;-68
2022/09/14 16:17:32;;;;;;;48.47;32.83;;;27.60;99.90;;;;;;4837415;29;20045;-65
2022/09/14 16:19:59;;;;;;;51.70;35.90;;;27.60;99.90;;;;;;4837884;29;20049;-66
2022/09/14 16:45:29;;;;;;;97.85;67.28;;;27.50;99.90;;;;;;4893937;29;20036;-66
2022/09/14 17:07:51;;;;;;;55.10;33.47;;;27.20;99.90;;;;;;4950595;28;20537;-66
2022/09/14 17:10:18;;;;;;;48.30;32.33;;;27.20;99.90;;;;;;4893664;29;20064;-65
2022/09/14 17:15:31;;;;;;;44.15;30.48;;;27.20;99.90;;;;;;4875579;29;20060;-68
2022/09/14 17:18:37;;;;;;;42.95;30.63;;;27.20;99.90;;;;;;4875431;29;20219;-68
2022/09/14 17:29:47;;;;;;;44.03;32.90;;;27.10;99.90;;;;;;5090977;28;20451;-68
2022/09/14 17:32:53;;;;;;;48.85;32.88;;;27.10;99.90;;;;;;5090649;28;20555;-68
2022/09/14 17:42:17;;;;;;;74.20;43.10;;;27.10;99.90;;;;;;4875002;29;20044;-66
2022/09/14 17:44:43;;;;;;;69.53;42.50;;;27.10;99.90;;;;;;4829758;29;20050;-64
2022/09/14 17:47:10;;;;;;;79.72;44.60;;;27.10;99.90;;;;;;4838572;29;20046;-65
2022/09/14 18:01:42;;;;;;;71.88;42.10;;;27.20;99.90;;;;;;5068271;28;20493;-64
2022/09/14 18:04:28;;;;;;;72.20;44.13;;;27.10;99.90;;;;;;5017926;28;20038;-64
2022/09/14 18:32:05;;;;;;;100.10;53.35;;;27.00;99.90;;;;;;4931810;29;20036;-65
2022/09/14 18:50:42;;;;;;;109.53;61.38;;;26.80;99.90;;;;;;5111679;27;20377;-64
2022/09/14 18:53:28;;;;;;;97.68;58.00;;;26.80;99.90;;;;;;5029273;28;20724;-65
2022/09/14 18:58:47;;;;;;;104.40;53.75;;;26.80;99.90;;;;;;5009135;28;20034;-64
2022/09/14 19:10:14;;;;;;;77.60;46.63;;;26.80;99.90;;;;;;4783379;30;20104;-64
2022/09/14 19:22:36;;;;;;;85.07;50.83;;;26.60;99.90;;;;;;5088658;27;20370;-64
2022/09/14 19:34:24;;;;;;;88.55;51.15;;;26.40;99.90;;;;;;4950299;29;20080;-64
2022/09/14 19:39:37;;;;;;;85.70;50.50;;;26.30;99.90;;;;;;4874672;29;20395;-64
2022/09/14 19:42:04;;;;;;;74.63;47.50;;;26.20;99.90;;;;;;4874064;29;20034;-64
2022/09/14 19:44:31;;;;;;;76.95;49.25;;;26.20;99.90;;;;;;4874476;29;20045;-64
2022/09/14 19:46:57;;;;;;;75.47;48.60;;;26.20;99.90;;;;;;4874764;29;20101;-64
2022/09/14 19:49:25;;;;;;;67.15;46.58;;;26.20;99.90;;;;;;4874693;29;20041;-64
2022/09/14 19:51:52;;;;;;;80.43;47.00;;;26.30;99.90;;;;;;4874587;29;20049;-64
2022/09/14 19:54:19;;;;;;;74.53;46.35;;;26.40;99.90;;;;;;4874642;29;20052;-64
2022/09/14 19:56:46;;;;;;;88.07;49.92;;;26.50;99.90;;;;;;4874644;29;20407;-64
2022/09/14 19:59:15;;;;;;;78.40;48.38;;;26.50;99.90;;;;;;4874457;29;20053;-64
2022/09/14 20:01:42;;;;;;;101.47;57.92;;;26.50;99.90;;;;;;4874566;29;20052;-63
2022/09/14 20:04:09;;;;;;;110.53;61.45;;;26.50;99.90;;;;;;4856830;29;20042;-62
2022/09/14 20:06:46;;;;;;;104.53;60.08;;;26.40;99.90;;;;;;4801030;29;20047;-63
2022/09/14 20:09:17;;;;;;;107.13;62.20;;;26.40;99.90;;;;;;4868602;29;20052;-65
2022/09/14 20:11:45;;;;;;;111.25;57.97;;;26.40;99.90;;;;;;4915808;29;20072;-65
2022/09/14 20:14:14;;;;;;;94.47;53.80;;;26.40;99.90;;;;;;4966355;28;20408;-65
2022/09/14 20:16:43;;;;;;;84.43;52.40;;;26.50;99.90;;;;;;5008280;28;20068;-65
2022/09/14 20:19:14;;;;;;;84.90;47.40;;;26.50;99.90;;;;;;5029715;28;20033;-65
2022/09/14 20:21:41;;;;;;;77.38;47.47;;;26.40;99.90;;;;;;5029542;28;20046;-65
2022/09/14 20:24:11;;;;;;;71.78;46.65;;;26.30;99.90;;;;;;5029660;28;20057;-65
2022/09/14 20:26:40;;;;;;;71.82;45.33;;;26.30;99.90;;;;;;5029490;28;20041;-64
2022/09/14 20:29:07;;;;;;;73.47;46.35;;;26.20;99.90;;;;;;5029449;28;20029;-64
2022/09/14 20:31:34;;;;;;;82.18;45.75;;;26.20;99.90;;;;;;5029505;28;20029;-64
2022/09/14 20:34:00;;;;;;;70.63;45.92;;;26.20;99.90;;;;;;5015650;28;20037;-64
2022/09/14 20:36:27;;;;;;;67.80;44.58;;;26.20;99.90;;;;;;5016481;28;20034;-64
2022/09/14 20:38:56;;;;;;;80.18;46.85;;;26.20;99.90;;;;;;5016218;28;20041;-64
2022/09/14 20:41:26;;;;;;;79.50;47.20;;;26.10;99.90;;;;;;5016025;28;20471;-65
2022/09/14 20:43:53;;;;;;;81.60;48.55;;;26.10;99.90;;;;;;5016201;28;20030;-64
2022/09/14 20:46:30;;;;;;;95.47;53.40;;;26.10;99.90;;;;;;5016402;28;20475;-64
2022/09/14 20:48:57;;;;;;;101.30;55.22;;;26.10;99.90;;;;;;5016106;28;20026;-64
2022/09/14 20:51:24;;;;;;;111.85;58.03;;;26.10;99.90;;;;;;5015963;28;20057;-64
2022/09/14 20:53:51;;;;;;;101.50;60.60;;;26.10;99.90;;;;;;5016035;28;20447;-64
2022/09/14 20:56:20;;;;;;;106.32;59.80;;;26.10;99.90;;;;;;5015948;28;20037;-64
2022/09/14 20:58:47;;;;;;;92.18;53.38;;;26.10;99.90;;;;;;5015863;28;20038;-64
2022/09/14 21:01:17;;;;;;;81.20;50.55;;;26.00;99.90;;;;;;5015662;28;20034;-64
2022/09/14 21:03:45;;;;;;;81.13;47.72;;;26.00;99.90;;;;;;5035197;28;20033;-65
2022/09/14 21:06:18;;;;;;;77.80;46.35;;;25.90;99.90;;;;;;5035395;28;20021;-64
2022/09/14 21:08:45;;;;;;;70.47;43.55;;;26.00;99.90;;;;;;5035503;28;20052;-64
2022/09/14 21:11:14;;;;;;;69.88;47.30;;;26.00;99.90;;;;;;5035545;28;20025;-64
2022/09/14 21:13:41;;;;;;;81.53;47.33;;;26.00;99.90;;;;;;5035878;28;20056;-64
2022/09/14 21:16:09;;;;;;;81.45;46.70;;;25.90;99.90;;;;;;5035349;28;20032;-65
2022/09/14 21:18:35;;;;;;;78.70;50.38;;;26.00;99.90;;;;;;5035357;28;20401;-64
2022/09/14 21:21:06;;;;;;;77.28;48.50;;;26.00;99.90;;;;;;5035105;28;20045;-64
2022/09/14 21:23:32;;;;;;;68.68;45.42;;;26.00;99.90;;;;;;5035123;28;20035;-64
2022/09/14 21:25:59;;;;;;;71.60;43.35;;;26.00;99.90;;;;;;5035470;28;20026;-65
2022/09/14 21:28:26;;;;;;;76.78;47.88;;;26.00;99.90;;;;;;5035150;28;20371;-64
2022/09/14 21:31:05;;;;;;;84.40;49.03;;;26.00;99.90;;;;;;5034486;28;20079;-64
2022/09/14 21:33:33;;;;;;;78.07;47.88;;;25.90;99.90;;;;;;5035029;28;20099;-65
2022/09/14 21:36:07;;;;;;;88.22;54.35;;;25.90;99.90;;;;;;5015016;28;20084;-64
2022/09/14 21:38:37;;;;;;;94.97;55.95;;;25.90;99.90;;;;;;5021258;28;20490;-65
2022/09/14 21:41:07;;;;;;;87.88;51.13;;;25.90;99.90;;;;;;5035029;28;20040;-64
2022/09/14 21:43:37;;;;;;;85.75;48.70;;;25.80;99.90;;;;;;5034290;28;20052;-64
2022/09/14 21:46:05;;;;;;;68.65;43.28;;;25.80;99.90;;;;;;5034367;28;20025;-64
2022/09/14 21:48:32;;;;;;;75.15;45.20;;;25.80;99.90;;;;;;5034744;28;20014;-64
2022/09/14 21:51:01;;;;;;;72.05;43.67;;;25.80;99.90;;;;;;5034571;28;20032;-64
2022/09/14 21:53:28;;;;;;;72.95;43.55;;;25.80;99.90;;;;;;5034763;28;20449;-64
2022/09/14 21:55:54;;;;;;;70.35;43.10;;;25.80;99.90;;;;;;5034521;28;20517;-64
2022/09/14 21:58:21;;;;;;;69.72;44.17;;;25.80;99.90;;;;;;5033734;28;20483;-64
2022/09/14 22:00:53;;;;;;;65.82;42.17;;;25.80;99.90;;;;;;5034555;28;20075;-63
2022/09/14 22:03:19;;;;;;;65.43;43.88;;;25.80;99.90;;;;;;5034418;28;20025;-64
2022/09/14 22:05:54;;;;;;;68.82;43.70;;;25.70;99.90;;;;;;5034479;28;20036;-64
2022/09/14 22:08:21;;;;;;;68.38;43.28;;;25.60;99.90;;;;;;5034460;28;20493;-64
2022/09/14 22:10:47;;;;;;;72.75;44.25;;;25.60;99.90;;;;;;5034332;28;20025;-63
2022/09/14 22:13:14;;;;;;;64.28;40.95;;;25.50;99.90;;;;;;5034553;28;20108;-65
2022/09/14 22:15:41;;;;;;;63.50;40.50;;;25.60;99.90;;;;;;5034303;28;20026;-64
2022/09/14 22:18:07;;;;;;;73.63;42.00;;;25.60;99.90;;;;;;5034202;28;20057;-63
2022/09/14 22:20:34;;;;;;;67.60;42.28;;;25.70;99.90;;;;;;5034515;28;20054;-63
2022/09/14 22:23:01;;;;;;;76.97;45.03;;;25.70;99.90;;;;;;5034229;28;20025;-63
2022/09/14 22:25:27;;;;;;;72.28;44.85;;;25.80;99.90;;;;;;5033955;28;20033;-63
2022/09/14 22:27:54;;;;;;;72.75;44.00;;;25.70;99.90;;;;;;5034073;28;20064;-63
2022/09/14 22:30:21;;;;;;;67.97;42.55;;;25.70;99.90;;;;;;5033672;28;20025;-63
2022/09/14 22:32:47;;;;;;;74.60;44.58;;;25.70;99.90;;;;;;5033695;28;20474;-63
2022/09/14 22:35:14;;;;;;;70.85;42.65;;;25.70;99.90;;;;;;5033941;28;20026;-63
2022/09/14 22:37:40;;;;;;;65.57;42.50;;;25.80;99.90;;;;;;5034054;28;20026;-63
2022/09/14 22:40:07;;;;;;;65.65;42.83;;;25.80;99.90;;;;;;5033714;28;20394;-63
2022/09/14 22:42:35;;;;;;;62.67;42.00;;;25.80;99.90;;;;;;5033114;28;20025;-64
2022/09/14 22:45:02;;;;;;;66.80;40.63;;;25.80;99.90;;;;;;5032865;28;20013;-64
2022/09/14 22:47:29;;;;;;;72.03;42.28;;;25.80;99.90;;;;;;5032715;28;20029;-63
2022/09/14 22:49:55;;;;;;;70.43;42.53;;;25.80;99.90;;;;;;5032845;28;20033;-64
2022/09/14 22:52:22;;;;;;;69.32;41.58;;;25.80;99.90;;;;;;5022770;28;20376;-64
2022/09/14 22:54:49;;;;;;;72.57;43.90;;;25.90;99.90;;;;;;5024285;28;20087;-63
2022/09/14 22:57:15;;;;;;;73.03;44.65;;;25.90;99.90;;;;;;5023237;28;20474;-64
2022/09/14 22:59:42;;;;;;;75.57;44.08;;;25.90;99.90;;;;;;5022990;28;20064;-64
2022/09/14 23:02:08;;;;;;;66.47;43.50;;;25.80;99.90;;;;;;5021537;28;20573;-63
2022/09/14 23:04:35;;;;;;;73.22;44.40;;;25.90;99.90;;;;;;5021842;28;20040;-64
2022/09/14 23:07:03;;;;;;;76.88;45.22;;;25.80;99.90;;;;;;5032913;28;20022;-65
2022/09/14 23:09:29;;;;;;;71.03;45.40;;;25.80;99.90;;;;;;5032535;28;20460;-64
2022/09/14 23:11:56;;;;;;;75.18;44.80;;;25.80;99.90;;;;;;5033385;28;20040;-65
2022/09/14 23:14:22;;;;;;;74.50;43.30;;;25.80;99.90;;;;;;5033792;28;20021;-64
2022/09/14 23:16:49;;;;;;;74.18;46.45;;;25.90;99.90;;;;;;5033918;28;20147;-64
2022/09/14 23:19:17;;;;;;;70.97;44.70;;;25.80;99.90;;;;;;5033516;28;20071;-66
2022/09/14 23:21:44;;;;;;;71.65;45.03;;;25.80;99.90;;;;;;5033254;28;20098;-65
2022/09/14 23:24:11;;;;;;;74.97;47.13;;;25.80;99.90;;;;;;5033562;28;20029;-65
2022/09/14 23:26:38;;;;;;;69.15;43.63;;;25.80;99.90;;;;;;5033464;28;20026;-66
2022/09/14 23:29:08;;;;;;;74.15;44.10;;;25.90;99.90;;;;;;5033344;28;20049;-65
2022/09/14 23:31:35;;;;;;;78.20;48.35;;;25.90;99.90;;;;;;5033296;28;20469;-66
2022/09/14 23:34:03;;;;;;;76.25;49.13;;;25.80;99.90;;;;;;5032972;28;20057;-65
2022/09/14 23:36:30;;;;;;;90.38;54.15;;;25.90;99.90;;;;;;5033446;28;20029;-64
2022/09/14 23:38:57;;;;;;;79.78;53.75;;;25.90;99.90;;;;;;5032923;28;20036;-65
2022/09/14 23:41:25;;;;;;;86.15;54.40;;;25.80;99.90;;;;;;5032435;28;20030;-65
2022/09/14 23:43:52;;;;;;;76.57;52.03;;;25.80;99.90;;;;;;5032684;28;20382;-66
2022/09/14 23:46:21;;;;;;;77.32;51.28;;;25.80;99.90;;;;;;5032703;28;20025;-65
2022/09/14 23:48:48;;;;;;;72.80;48.85;;;25.80;99.90;;;;;;5032461;28;20032;-66
2022/09/14 23:51:15;;;;;;;73.88;47.75;;;25.80;99.90;;;;;;5032293;28;20022;-65
2022/09/14 23:53:42;;;;;;;75.78;50.25;;;25.90;99.90;;;;;;5032432;28;20026;-66
2022/09/14 23:56:09;;;;;;;76.55;50.13;;;25.90;99.90;;;;;;5032057;28;20018;-66
2022/09/14 23:58:36;;;;;;;75.00;47.65;;;25.90;99.90;;;;;;5033135;28;20025;-65
